sensor_id;sensor_type;location;lat;lon;timestamp;P1;durP1;ratioP1;P2;durP2;ratioP2
6376;SDS011;3221;48.858;10.128;2023-01-15T00:02:14;1.40;;;0.80;;
6376;SDS011;3221;48.858;10.128;2023-01-15T00:04:43;1.10;;;0.93;;
6376;SDS011;3221;48.858;10.128;2023-01-15T00:07:10;4.93;;;1.77;;
6376;SDS011;3221;48.858;10.128;2023-01-15T00:09:36;1.40;;;1.30;;
6376;SDS011;3221;48.858;10.128;2023-01-15T00:12:03;1.70;;;1.23;;
6376;SDS011;3221;48.858;10.128;2023-01-15T00:14:30;5.07;;;2.10;;
6376;SDS011;3221;48.858;10.128;2023-01-15T00:16:57;1.80;;;1.23;;
6376;SDS011;3221;48.858;10.128;2023-01-15T00:19:24;1.70;;;1.30;;
6376;SDS011;3221;48.858;10.128;2023-01-15T00:21:51;1.67;;;1.40;;
6376;SDS011;3221;48.858;10.128;2023-01-15T00:24:19;1.90;;;1.43;;
6376;SDS011;3221;48.858;10.128;2023-01-15T00:27:04;2.50;;;1.47;;
6376;SDS011;3221;48.858;10.128;2023-01-15T00:29:49;1.00;;;0.90;;
6376;SDS011;3221;48.858;10.128;2023-01-15T00:32:16;1.43;;;1.17;;
6376;SDS011;3221;48.858;10.128;2023-01-15T00:34:43;1.60;;;0.83;;
6376;SDS011;3221;48.858;10.128;2023-01-15T00:37:10;1.03;;;0.90;;
6376;SDS011;3221;48.858;10.128;2023-01-15T00:39:36;1.33;;;1.13;;
6376;SDS011;3221;48.858;10.128;2023-01-15T00:42:03;2.77;;;1.43;;
6376;SDS011;3221;48.858;10.128;2023-01-15T00:44:31;1.17;;;1.00;;
6376;SDS011;3221;48.858;10.128;2023-01-15T00:46:58;1.20;;;0.80;;
6376;SDS011;3221;48.858;10.128;2023-01-15T00:49:25;2.20;;;1.30;;
6376;SDS011;3221;48.858;10.128;2023-01-15T00:51:52;0.80;;;0.80;;
6376;SDS011;3221;48.858;10.128;2023-01-15T00:54:19;0.90;;;0.90;;
6376;SDS011;3221;48.858;10.128;2023-01-15T00:56:46;1.07;;;0.90;;
6376;SDS011;3221;48.858;10.128;2023-01-15T00:59:13;1.13;;;0.97;;
6376;SDS011;3221;48.858;10.128;2023-01-15T01:01:41;0.87;;;0.87;;
6376;SDS011;3221;48.858;10.128;2023-01-15T01:04:08;0.70;;;0.70;;
6376;SDS011;3221;48.858;10.128;2023-01-15T01:06:34;1.13;;;0.70;;
6376;SDS011;3221;48.858;10.128;2023-01-15T01:09:01;1.50;;;0.70;;
6376;SDS011;3221;48.858;10.128;2023-01-15T01:11:29;0.73;;;0.73;;
6376;SDS011;3221;48.858;10.128;2023-01-15T01:14:00;0.73;;;0.73;;
6376;SDS011;3221;48.858;10.128;2023-01-15T01:16:34;0.80;;;0.77;;
6376;SDS011;3221;48.858;10.128;2023-01-15T01:19:06;0.80;;;0.80;;
6376;SDS011;3221;48.858;10.128;2023-01-15T01:21:35;0.60;;;0.60;;
6376;SDS011;3221;48.858;10.128;2023-01-15T01:24:04;0.77;;;0.77;;
6376;SDS011;3221;48.858;10.128;2023-01-15T01:26:33;0.70;;;0.70;;
6376;SDS011;3221;48.858;10.128;2023-01-15T01:29:01;2.07;;;0.90;;
6376;SDS011;3221;48.858;10.128;2023-01-15T01:31:29;0.93;;;0.77;;
6376;SDS011;3221;48.858;10.128;2023-01-15T01:33:57;1.40;;;0.80;;
6376;SDS011;3221;48.858;10.128;2023-01-15T01:36:29;1.43;;;0.80;;
6376;SDS011;3221;48.858;10.128;2023-01-15T01:39:00;0.80;;;0.80;;
6376;SDS011;3221;48.858;10.128;2023-01-15T01:41:28;0.80;;;0.80;;
6376;SDS011;3221;48.858;10.128;2023-01-15T01:44:02;0.53;;;0.53;;
6376;SDS011;3221;48.858;10.128;2023-01-15T01:46:36;1.50;;;0.70;;
6376;SDS011;3221;48.858;10.128;2023-01-15T01:51:34;0.60;;;0.60;;
6376;SDS011;3221;48.858;10.128;2023-01-15T01:54:05;0.60;;;0.60;;
6376;SDS011;3221;48.858;10.128;2023-01-15T01:56:34;0.73;;;0.73;;
6376;SDS011;3221;48.858;10.128;2023-01-15T01:59:02;0.80;;;0.80;;
6376;SDS011;3221;48.858;10.128;2023-01-15T02:01:30;0.70;;;0.70;;
6376;SDS011;3221;48.858;10.128;2023-01-15T02:03:58;0.80;;;0.70;;
6376;SDS011;3221;48.858;10.128;2023-01-15T02:06:25;0.80;;;0.70;;
6376;SDS011;3221;48.858;10.128;2023-01-15T02:08:54;0.70;;;0.67;;
6376;SDS011;3221;48.858;10.128;2023-01-15T02:11:22;0.80;;;0.80;;
6376;SDS011;3221;48.858;10.128;2023-01-15T02:27:16;0.70;;;0.70;;
6376;SDS011;3221;48.858;10.128;2023-01-15T02:29:47;1.00;;;0.80;;
6376;SDS011;3221;48.858;10.128;2023-01-15T02:32:25;1.10;;;0.80;;
6376;SDS011;3221;48.858;10.128;2023-01-15T02:35:01;0.80;;;0.80;;
6376;SDS011;3221;48.858;10.128;2023-01-15T02:37:38;0.77;;;0.73;;
6376;SDS011;3221;48.858;10.128;2023-01-15T02:40:08;1.17;;;0.70;;
6376;SDS011;3221;48.858;10.128;2023-01-15T02:42:37;0.93;;;0.77;;
6376;SDS011;3221;48.858;10.128;2023-01-15T02:45:06;0.90;;;0.90;;
6376;SDS011;3221;48.858;10.128;2023-01-15T02:47:37;0.80;;;0.80;;
6376;SDS011;3221;48.858;10.128;2023-01-15T02:50:08;0.80;;;0.80;;
6376;SDS011;3221;48.858;10.128;2023-01-15T02:52:44;0.80;;;0.80;;
6376;SDS011;3221;48.858;10.128;2023-01-15T02:55:20;1.13;;;1.07;;
6376;SDS011;3221;48.858;10.128;2023-01-15T02:57:55;0.60;;;0.60;;
6376;SDS011;3221;48.858;10.128;2023-01-15T03:00:26;0.80;;;0.80;;
6376;SDS011;3221;48.858;10.128;2023-01-15T03:02:58;0.97;;;0.70;;
6376;SDS011;3221;48.858;10.128;2023-01-15T03:05:34;0.97;;;0.90;;
6376;SDS011;3221;48.858;10.128;2023-01-15T03:08:06;0.80;;;0.80;;
6376;SDS011;3221;48.858;10.128;2023-01-15T03:13:20;0.70;;;0.70;;
6376;SDS011;3221;48.858;10.128;2023-01-15T03:16:08;1.03;;;0.77;;
6376;SDS011;3221;48.858;10.128;2023-01-15T03:19:16;0.80;;;0.73;;
6376;SDS011;3221;48.858;10.128;2023-01-15T03:26:58;0.93;;;0.93;;
6376;SDS011;3221;48.858;10.128;2023-01-15T03:29:28;1.80;;;1.60;;
6376;SDS011;3221;48.858;10.128;2023-01-15T03:31:59;1.47;;;1.20;;
6376;SDS011;3221;48.858;10.128;2023-01-15T03:34:28;3.50;;;1.10;;
6376;SDS011;3221;48.858;10.128;2023-01-15T03:37:00;0.70;;;0.70;;
6376;SDS011;3221;48.858;10.128;2023-01-15T03:39:28;1.10;;;1.00;;
6376;SDS011;3221;48.858;10.128;2023-01-15T03:47:34;0.70;;;0.70;;
6376;SDS011;3221;48.858;10.128;2023-01-15T03:50:31;1.10;;;0.87;;
6376;SDS011;3221;48.858;10.128;2023-01-15T03:55:54;0.80;;;0.70;;
6376;SDS011;3221;48.858;10.128;2023-01-15T04:01:08;0.77;;;0.60;;
6376;SDS011;3221;48.858;10.128;2023-01-15T04:03:39;0.70;;;0.70;;
6376;SDS011;3221;48.858;10.128;2023-01-15T04:06:07;0.80;;;0.60;;
6376;SDS011;3221;48.858;10.128;2023-01-15T04:08:37;0.57;;;0.57;;
6376;SDS011;3221;48.858;10.128;2023-01-15T04:11:07;0.83;;;0.80;;
6376;SDS011;3221;48.858;10.128;2023-01-15T04:13:45;0.60;;;0.60;;
6376;SDS011;3221;48.858;10.128;2023-01-15T04:16:29;0.53;;;0.53;;
6376;SDS011;3221;48.858;10.128;2023-01-15T04:18:57;0.70;;;0.70;;
6376;SDS011;3221;48.858;10.128;2023-01-15T04:21:25;0.50;;;0.50;;
6376;SDS011;3221;48.858;10.128;2023-01-15T04:23:52;0.60;;;0.60;;
6376;SDS011;3221;48.858;10.128;2023-01-15T04:26:18;0.70;;;0.70;;
6376;SDS011;3221;48.858;10.128;2023-01-15T04:28:45;0.60;;;0.60;;
6376;SDS011;3221;48.858;10.128;2023-01-15T04:31:12;0.67;;;0.67;;
6376;SDS011;3221;48.858;10.128;2023-01-15T04:33:39;2.33;;;0.60;;
6376;SDS011;3221;48.858;10.128;2023-01-15T04:36:06;0.77;;;0.60;;
6376;SDS011;3221;48.858;10.128;2023-01-15T04:38:36;0.87;;;0.70;;
6376;SDS011;3221;48.858;10.128;2023-01-15T04:41:04;0.60;;;0.60;;
6376;SDS011;3221;48.858;10.128;2023-01-15T04:43:49;0.60;;;0.60;;
6376;SDS011;3221;48.858;10.128;2023-01-15T04:46:32;1.43;;;0.50;;
6376;SDS011;3221;48.858;10.128;2023-01-15T04:49:05;0.50;;;0.50;;
6376;SDS011;3221;48.858;10.128;2023-01-15T04:51:34;0.60;;;0.60;;
6376;SDS011;3221;48.858;10.128;2023-01-15T04:54:01;0.63;;;0.60;;
6376;SDS011;3221;48.858;10.128;2023-01-15T04:56:29;2.40;;;0.43;;
6376;SDS011;3221;48.858;10.128;2023-01-15T04:58:58;0.50;;;0.50;;
6376;SDS011;3221;48.858;10.128;2023-01-15T05:04:14;0.60;;;0.60;;
6376;SDS011;3221;48.858;10.128;2023-01-15T05:06:41;0.67;;;0.67;;
6376;SDS011;3221;48.858;10.128;2023-01-15T05:09:08;0.50;;;0.50;;
6376;SDS011;3221;48.858;10.128;2023-01-15T05:11:35;0.57;;;0.57;;
6376;SDS011;3221;48.858;10.128;2023-01-15T05:14:04;2.10;;;0.60;;
6376;SDS011;3221;48.858;10.128;2023-01-15T05:16:31;0.60;;;0.60;;
6376;SDS011;3221;48.858;10.128;2023-01-15T05:19:00;0.70;;;0.70;;
6376;SDS011;3221;48.858;10.128;2023-01-15T05:21:32;0.90;;;0.60;;
6376;SDS011;3221;48.858;10.128;2023-01-15T05:24:02;0.50;;;0.50;;
6376;SDS011;3221;48.858;10.128;2023-01-15T05:26:31;0.60;;;0.60;;
6376;SDS011;3221;48.858;10.128;2023-01-15T05:28:59;0.50;;;0.50;;
6376;SDS011;3221;48.858;10.128;2023-01-15T05:31:28;0.60;;;0.60;;
6376;SDS011;3221;48.858;10.128;2023-01-15T05:33:56;0.40;;;0.40;;
6376;SDS011;3221;48.858;10.128;2023-01-15T05:36:24;0.70;;;0.70;;
6376;SDS011;3221;48.858;10.128;2023-01-15T05:38:53;0.90;;;0.60;;
6376;SDS011;3221;48.858;10.128;2023-01-15T05:41:20;0.80;;;0.53;;
6376;SDS011;3221;48.858;10.128;2023-01-15T05:44:08;0.60;;;0.60;;
6376;SDS011;3221;48.858;10.128;2023-01-15T05:46:37;0.60;;;0.60;;
6376;SDS011;3221;48.858;10.128;2023-01-15T05:49:06;0.80;;;0.70;;
6376;SDS011;3221;48.858;10.128;2023-01-15T05:51:36;0.50;;;0.50;;
6376;SDS011;3221;48.858;10.128;2023-01-15T05:54:04;0.60;;;0.60;;
6376;SDS011;3221;48.858;10.128;2023-01-15T05:56:33;0.50;;;0.50;;
6376;SDS011;3221;48.858;10.128;2023-01-15T05:59:01;0.60;;;0.60;;
6376;SDS011;3221;48.858;10.128;2023-01-15T06:01:29;1.30;;;1.20;;
6376;SDS011;3221;48.858;10.128;2023-01-15T06:04:01;1.03;;;0.90;;
6376;SDS011;3221;48.858;10.128;2023-01-15T06:06:29;0.87;;;0.87;;
6376;SDS011;3221;48.858;10.128;2023-01-15T06:08:56;0.70;;;0.70;;
6376;SDS011;3221;48.858;10.128;2023-01-15T06:11:23;0.60;;;0.60;;
6376;SDS011;3221;48.858;10.128;2023-01-15T06:13:51;0.70;;;0.70;;
6376;SDS011;3221;48.858;10.128;2023-01-15T06:16:17;0.60;;;0.60;;
6376;SDS011;3221;48.858;10.128;2023-01-15T06:18:45;0.60;;;0.60;;
6376;SDS011;3221;48.858;10.128;2023-01-15T06:21:12;0.57;;;0.57;;
6376;SDS011;3221;48.858;10.128;2023-01-15T06:23:40;1.30;;;0.80;;
6376;SDS011;3221;48.858;10.128;2023-01-15T06:26:10;0.60;;;0.50;;
6376;SDS011;3221;48.858;10.128;2023-01-15T06:28:39;0.60;;;0.60;;
6376;SDS011;3221;48.858;10.128;2023-01-15T06:31:07;0.70;;;0.70;;
6376;SDS011;3221;48.858;10.128;2023-01-15T06:33:35;0.60;;;0.60;;
6376;SDS011;3221;48.858;10.128;2023-01-15T06:36:05;0.80;;;0.80;;
6376;SDS011;3221;48.858;10.128;2023-01-15T06:38:33;0.87;;;0.57;;
6376;SDS011;3221;48.858;10.128;2023-01-15T06:41:00;1.27;;;0.63;;
6376;SDS011;3221;48.858;10.128;2023-01-15T06:43:28;1.30;;;0.90;;
6376;SDS011;3221;48.858;10.128;2023-01-15T06:46:14;1.83;;;1.50;;
6376;SDS011;3221;48.858;10.128;2023-01-15T06:49:01;7.90;;;3.63;;
6376;SDS011;3221;48.858;10.128;2023-01-15T06:51:27;7.77;;;3.47;;
6376;SDS011;3221;48.858;10.128;2023-01-15T06:53:56;4.23;;;2.40;;
6376;SDS011;3221;48.858;10.128;2023-01-15T06:56:23;2.23;;;1.40;;
6376;SDS011;3221;48.858;10.128;2023-01-15T06:58:50;1.33;;;1.17;;
6376;SDS011;3221;48.858;10.128;2023-01-15T07:01:16;1.27;;;1.17;;
6376;SDS011;3221;48.858;10.128;2023-01-15T07:03:43;1.30;;;1.20;;
6376;SDS011;3221;48.858;10.128;2023-01-15T07:06:11;1.10;;;1.00;;
6376;SDS011;3221;48.858;10.128;2023-01-15T07:08:38;1.00;;;1.00;;
6376;SDS011;3221;48.858;10.128;2023-01-15T07:11:06;1.53;;;1.40;;
6376;SDS011;3221;48.858;10.128;2023-01-15T07:13:35;1.30;;;1.20;;
6376;SDS011;3221;48.858;10.128;2023-01-15T07:16:02;1.73;;;1.30;;
6376;SDS011;3221;48.858;10.128;2023-01-15T07:18:30;3.50;;;1.50;;
6376;SDS011;3221;48.858;10.128;2023-01-15T07:20:58;2.20;;;1.40;;
6376;SDS011;3221;48.858;10.128;2023-01-15T07:23:25;1.97;;;1.63;;
6376;SDS011;3221;48.858;10.128;2023-01-15T07:25:53;4.27;;;1.70;;
6376;SDS011;3221;48.858;10.128;2023-01-15T07:28:20;2.00;;;1.50;;
6376;SDS011;3221;48.858;10.128;2023-01-15T07:30:48;1.20;;;1.00;;
6376;SDS011;3221;48.858;10.128;2023-01-15T07:33:15;0.93;;;0.93;;
6376;SDS011;3221;48.858;10.128;2023-01-15T07:35:42;0.70;;;0.70;;
6376;SDS011;3221;48.858;10.128;2023-01-15T07:38:09;0.70;;;0.70;;
6376;SDS011;3221;48.858;10.128;2023-01-15T07:40:35;0.83;;;0.60;;
6376;SDS011;3221;48.858;10.128;2023-01-15T07:43:03;0.60;;;0.60;;
6376;SDS011;3221;48.858;10.128;2023-01-15T07:45:48;0.67;;;0.67;;
6376;SDS011;3221;48.858;10.128;2023-01-15T07:48:34;0.70;;;0.70;;
6376;SDS011;3221;48.858;10.128;2023-01-15T07:51:19;0.77;;;0.77;;
6376;SDS011;3221;48.858;10.128;2023-01-15T07:53:46;1.00;;;0.90;;
6376;SDS011;3221;48.858;10.128;2023-01-15T07:56:13;1.10;;;1.00;;
6376;SDS011;3221;48.858;10.128;2023-01-15T07:58:40;1.17;;;1.07;;
6376;SDS011;3221;48.858;10.128;2023-01-15T08:01:07;0.63;;;0.63;;
6376;SDS011;3221;48.858;10.128;2023-01-15T08:03:34;0.60;;;0.60;;
6376;SDS011;3221;48.858;10.128;2023-01-15T08:06:01;0.50;;;0.50;;
6376;SDS011;3221;48.858;10.128;2023-01-15T08:08:27;0.63;;;0.63;;
6376;SDS011;3221;48.858;10.128;2023-01-15T08:10:54;0.50;;;0.50;;
6376;SDS011;3221;48.858;10.128;2023-01-15T08:13:44;1.47;;;0.60;;
6376;SDS011;3221;48.858;10.128;2023-01-15T08:16:29;0.60;;;0.60;;
6376;SDS011;3221;48.858;10.128;2023-01-15T08:19:01;0.50;;;0.50;;
6376;SDS011;3221;48.858;10.128;2023-01-15T08:21:28;0.70;;;0.67;;
6376;SDS011;3221;48.858;10.128;2023-01-15T08:23:55;2.37;;;0.80;;
6376;SDS011;3221;48.858;10.128;2023-01-15T08:26:22;0.80;;;0.80;;
6376;SDS011;3221;48.858;10.128;2023-01-15T08:28:49;3.00;;;2.10;;
6376;SDS011;3221;48.858;10.128;2023-01-15T08:31:15;3.00;;;2.20;;
6376;SDS011;3221;48.858;10.128;2023-01-15T08:33:42;4.37;;;3.07;;
6376;SDS011;3221;48.858;10.128;2023-01-15T08:36:09;2.97;;;2.23;;
6376;SDS011;3221;48.858;10.128;2023-01-15T08:38:36;2.70;;;1.97;;
6376;SDS011;3221;48.858;10.128;2023-01-15T08:41:03;1.80;;;1.70;;
6376;SDS011;3221;48.858;10.128;2023-01-15T08:43:30;2.00;;;1.77;;
6376;SDS011;3221;48.858;10.128;2023-01-15T08:46:01;1.50;;;1.40;;
6376;SDS011;3221;48.858;10.128;2023-01-15T08:48:29;2.27;;;1.70;;
6376;SDS011;3221;48.858;10.128;2023-01-15T08:50:57;2.07;;;1.70;;
6376;SDS011;3221;48.858;10.128;2023-01-15T08:53:24;2.83;;;2.40;;
6376;SDS011;3221;48.858;10.128;2023-01-15T08:55:51;3.10;;;2.80;;
6376;SDS011;3221;48.858;10.128;2023-01-15T08:58:18;2.37;;;2.03;;
6376;SDS011;3221;48.858;10.128;2023-01-15T09:00:45;2.43;;;2.17;;
6376;SDS011;3221;48.858;10.128;2023-01-15T09:03:13;4.57;;;4.10;;
6376;SDS011;3221;48.858;10.128;2023-01-15T09:05:40;4.50;;;4.10;;
6376;SDS011;3221;48.858;10.128;2023-01-15T09:08:07;3.07;;;2.83;;
6376;SDS011;3221;48.858;10.128;2023-01-15T09:10:34;3.03;;;2.40;;
6376;SDS011;3221;48.858;10.128;2023-01-15T09:13:01;2.40;;;2.20;;
6376;SDS011;3221;48.858;10.128;2023-01-15T09:15:29;2.03;;;1.80;;
6376;SDS011;3221;48.858;10.128;2023-01-15T09:17:58;1.93;;;1.73;;
6376;SDS011;3221;48.858;10.128;2023-01-15T09:20:25;1.20;;;1.10;;
6376;SDS011;3221;48.858;10.128;2023-01-15T09:22:52;1.20;;;1.10;;
6376;SDS011;3221;48.858;10.128;2023-01-15T09:25:19;1.30;;;1.20;;
6376;SDS011;3221;48.858;10.128;2023-01-15T09:27:49;1.77;;;1.67;;
6376;SDS011;3221;48.858;10.128;2023-01-15T09:30:17;2.43;;;1.67;;
6376;SDS011;3221;48.858;10.128;2023-01-15T09:32:45;1.63;;;1.13;;
6376;SDS011;3221;48.858;10.128;2023-01-15T09:35:12;2.07;;;1.20;;
6376;SDS011;3221;48.858;10.128;2023-01-15T09:37:40;1.00;;;1.00;;
6376;SDS011;3221;48.858;10.128;2023-01-15T09:40:07;2.50;;;1.20;;
6376;SDS011;3221;48.858;10.128;2023-01-15T09:43:06;1.10;;;1.00;;
6376;SDS011;3221;48.858;10.128;2023-01-15T09:45:44;1.43;;;0.80;;
6376;SDS011;3221;48.858;10.128;2023-01-15T09:51:05;0.73;;;0.73;;
6376;SDS011;3221;48.858;10.128;2023-01-15T09:56:38;1.63;;;0.83;;
6376;SDS011;3221;48.858;10.128;2023-01-15T09:59:14;0.67;;;0.67;;
6376;SDS011;3221;48.858;10.128;2023-01-15T10:01:54;1.07;;;0.53;;
6376;SDS011;3221;48.858;10.128;2023-01-15T10:04:33;0.70;;;0.70;;
6376;SDS011;3221;48.858;10.128;2023-01-15T10:07:08;0.87;;;0.80;;
6376;SDS011;3221;48.858;10.128;2023-01-15T10:10:04;1.50;;;1.40;;
6376;SDS011;3221;48.858;10.128;2023-01-15T10:12:38;1.10;;;1.10;;
6376;SDS011;3221;48.858;10.128;2023-01-15T10:18:14;0.73;;;0.73;;
6376;SDS011;3221;48.858;10.128;2023-01-15T10:20:48;0.80;;;0.80;;
6376;SDS011;3221;48.858;10.128;2023-01-15T10:23:33;0.93;;;0.80;;
6376;SDS011;3221;48.858;10.128;2023-01-15T10:29:04;0.60;;;0.60;;
6376;SDS011;3221;48.858;10.128;2023-01-15T10:31:53;2.10;;;0.53;;
6376;SDS011;3221;48.858;10.128;2023-01-15T10:37:42;0.50;;;0.50;;
6376;SDS011;3221;48.858;10.128;2023-01-15T10:43:45;0.80;;;0.80;;
6376;SDS011;3221;48.858;10.128;2023-01-15T10:46:28;0.73;;;0.67;;
6376;SDS011;3221;48.858;10.128;2023-01-15T10:49:04;1.07;;;0.70;;
6376;SDS011;3221;48.858;10.128;2023-01-15T10:54:30;1.00;;;1.00;;
6376;SDS011;3221;48.858;10.128;2023-01-15T10:57:14;0.70;;;0.70;;
6376;SDS011;3221;48.858;10.128;2023-01-15T11:00:04;2.07;;;0.90;;
6376;SDS011;3221;48.858;10.128;2023-01-15T11:05:34;0.60;;;0.60;;
6376;SDS011;3221;48.858;10.128;2023-01-15T11:08:02;0.50;;;0.50;;
6376;SDS011;3221;48.858;10.128;2023-01-15T11:10:53;0.60;;;0.60;;
6376;SDS011;3221;48.858;10.128;2023-01-15T11:13:22;0.50;;;0.50;;
6376;SDS011;3221;48.858;10.128;2023-01-15T11:16:12;0.50;;;0.50;;
6376;SDS011;3221;48.858;10.128;2023-01-15T11:18:52;0.57;;;0.57;;
6376;SDS011;3221;48.858;10.128;2023-01-15T11:21:39;0.70;;;0.70;;
6376;SDS011;3221;48.858;10.128;2023-01-15T11:24:12;2.27;;;0.90;;
6376;SDS011;3221;48.858;10.128;2023-01-15T11:26:44;0.80;;;0.80;;
6376;SDS011;3221;48.858;10.128;2023-01-15T11:29:14;1.47;;;1.20;;
6376;SDS011;3221;48.858;10.128;2023-01-15T11:31:59;1.30;;;1.00;;
6376;SDS011;3221;48.858;10.128;2023-01-15T11:34:26;1.43;;;1.00;;
6376;SDS011;3221;48.858;10.128;2023-01-15T11:37:05;1.23;;;1.13;;
6376;SDS011;3221;48.858;10.128;2023-01-15T11:39:32;1.97;;;1.03;;
6376;SDS011;3221;48.858;10.128;2023-01-15T11:42:11;1.50;;;1.30;;
6376;SDS011;3221;48.858;10.128;2023-01-15T11:44:59;0.80;;;0.80;;
6376;SDS011;3221;48.858;10.128;2023-01-15T11:47:51;3.17;;;1.10;;
6376;SDS011;3221;48.858;10.128;2023-01-15T11:53:39;1.33;;;0.83;;
6376;SDS011;3221;48.858;10.128;2023-01-15T11:56:12;1.20;;;1.10;;
6376;SDS011;3221;48.858;10.128;2023-01-15T11:58:45;1.40;;;1.30;;
6376;SDS011;3221;48.858;10.128;2023-01-15T12:01:32;0.97;;;0.90;;
6376;SDS011;3221;48.858;10.128;2023-01-15T12:06:56;1.70;;;1.30;;
6376;SDS011;3221;48.858;10.128;2023-01-15T12:22:55;10.67;;;5.87;;
6376;SDS011;3221;48.858;10.128;2023-01-15T12:33:35;11.27;;;6.37;;
6376;SDS011;3221;48.858;10.128;2023-01-15T12:39:21;11.43;;;6.10;;
6376;SDS011;3221;48.858;10.128;2023-01-15T12:41:59;3.67;;;2.10;;
6376;SDS011;3221;48.858;10.128;2023-01-15T12:45:00;2.70;;;2.07;;
6376;SDS011;3221;48.858;10.128;2023-01-15T12:47:52;1.50;;;1.40;;
6376;SDS011;3221;48.858;10.128;2023-01-15T12:50:43;5.17;;;3.67;;
6376;SDS011;3221;48.858;10.128;2023-01-15T12:53:36;5.73;;;3.27;;
6376;SDS011;3221;48.858;10.128;2023-01-15T13:12:47;4.77;;;3.83;;
6376;SDS011;3221;48.858;10.128;2023-01-15T13:15:15;3.07;;;2.50;;
6376;SDS011;3221;48.858;10.128;2023-01-15T13:23:07;2.83;;;2.63;;
6376;SDS011;3221;48.858;10.128;2023-01-15T13:31:11;1.50;;;1.40;;
6376;SDS011;3221;48.858;10.128;2023-01-15T13:33:45;1.87;;;1.70;;
6376;SDS011;3221;48.858;10.128;2023-01-15T13:36:26;2.97;;;2.73;;
6376;SDS011;3221;48.858;10.128;2023-01-15T13:38:58;2.50;;;2.30;;
6376;SDS011;3221;48.858;10.128;2023-01-15T13:41:28;1.40;;;1.30;;
6376;SDS011;3221;48.858;10.128;2023-01-15T13:44:20;2.00;;;1.60;;
6376;SDS011;3221;48.858;10.128;2023-01-15T13:47:03;1.30;;;1.20;;
6376;SDS011;3221;48.858;10.128;2023-01-15T13:49:37;2.20;;;1.07;;
6376;SDS011;3221;48.858;10.128;2023-01-15T13:52:07;0.90;;;0.90;;
6376;SDS011;3221;48.858;10.128;2023-01-15T13:57:46;0.80;;;0.80;;
6376;SDS011;3221;48.858;10.128;2023-01-15T14:00:33;1.00;;;0.80;;
6376;SDS011;3221;48.858;10.128;2023-01-15T14:03:02;1.37;;;0.90;;
6376;SDS011;3221;48.858;10.128;2023-01-15T14:05:57;3.80;;;2.43;;
6376;SDS011;3221;48.858;10.128;2023-01-15T14:08:36;3.70;;;2.13;;
6376;SDS011;3221;48.858;10.128;2023-01-15T14:11:03;4.00;;;2.47;;
6376;SDS011;3221;48.858;10.128;2023-01-15T14:16:11;3.37;;;2.30;;
6376;SDS011;3221;48.858;10.128;2023-01-15T14:18:56;3.97;;;2.97;;
6376;SDS011;3221;48.858;10.128;2023-01-15T14:21:46;3.70;;;3.40;;
6376;SDS011;3221;48.858;10.128;2023-01-15T14:27:30;3.63;;;2.50;;
6376;SDS011;3221;48.858;10.128;2023-01-15T14:30:35;2.67;;;2.00;;
6376;SDS011;3221;48.858;10.128;2023-01-15T14:36:18;2.17;;;1.97;;
6376;SDS011;3221;48.858;10.128;2023-01-15T14:38:54;2.27;;;1.80;;
6376;SDS011;3221;48.858;10.128;2023-01-15T14:41:30;3.07;;;2.20;;
6376;SDS011;3221;48.858;10.128;2023-01-15T14:44:29;3.13;;;2.20;;
6376;SDS011;3221;48.858;10.128;2023-01-15T14:46:59;2.07;;;1.60;;
6376;SDS011;3221;48.858;10.128;2023-01-15T14:49:29;1.90;;;1.50;;
6376;SDS011;3221;48.858;10.128;2023-01-15T14:52:07;3.17;;;2.00;;
6376;SDS011;3221;48.858;10.128;2023-01-15T14:54:35;1.40;;;1.30;;
6376;SDS011;3221;48.858;10.128;2023-01-15T14:57:05;1.77;;;1.60;;
6376;SDS011;3221;48.858;10.128;2023-01-15T14:59:41;1.67;;;1.57;;
6376;SDS011;3221;48.858;10.128;2023-01-15T15:02:32;1.73;;;1.27;;
6376;SDS011;3221;48.858;10.128;2023-01-15T15:05:02;1.53;;;1.43;;
6376;SDS011;3221;48.858;10.128;2023-01-15T15:07:35;2.43;;;1.40;;
6376;SDS011;3221;48.858;10.128;2023-01-15T15:18:00;3.03;;;1.40;;
6376;SDS011;3221;48.858;10.128;2023-01-15T15:20:43;3.57;;;1.80;;
6376;SDS011;3221;48.858;10.128;2023-01-15T15:23:21;2.40;;;1.70;;
6376;SDS011;3221;48.858;10.128;2023-01-15T15:25:58;10.37;;;6.73;;
6376;SDS011;3221;48.858;10.128;2023-01-15T15:28:28;5.63;;;4.40;;
6376;SDS011;3221;48.858;10.128;2023-01-15T15:30:56;5.57;;;4.23;;
6376;SDS011;3221;48.858;10.128;2023-01-15T15:33:38;6.23;;;4.47;;
6376;SDS011;3221;48.858;10.128;2023-01-15T15:36:06;7.80;;;4.10;;
6376;SDS011;3221;48.858;10.128;2023-01-15T15:38:34;3.13;;;2.10;;
6376;SDS011;3221;48.858;10.128;2023-01-15T15:41:05;4.13;;;1.70;;
6376;SDS011;3221;48.858;10.128;2023-01-15T15:43:45;2.47;;;1.60;;
6376;SDS011;3221;48.858;10.128;2023-01-15T15:46:35;6.97;;;2.40;;
6376;SDS011;3221;48.858;10.128;2023-01-15T15:49:21;5.60;;;2.63;;
6376;SDS011;3221;48.858;10.128;2023-01-15T15:51:52;6.93;;;3.57;;
6376;SDS011;3221;48.858;10.128;2023-01-15T15:59:33;3.83;;;2.37;;
6376;SDS011;3221;48.858;10.128;2023-01-15T16:02:32;3.23;;;1.90;;
6376;SDS011;3221;48.858;10.128;2023-01-15T16:05:17;4.83;;;2.20;;
6376;SDS011;3221;48.858;10.128;2023-01-15T16:07:45;2.77;;;1.80;;
6376;SDS011;3221;48.858;10.128;2023-01-15T16:10:13;4.90;;;2.03;;
6376;SDS011;3221;48.858;10.128;2023-01-15T16:12:44;6.37;;;2.77;;
6376;SDS011;3221;48.858;10.128;2023-01-15T16:15:14;3.73;;;1.80;;
6376;SDS011;3221;48.858;10.128;2023-01-15T16:17:44;3.57;;;2.30;;
6376;SDS011;3221;48.858;10.128;2023-01-15T16:20:15;4.20;;;2.60;;
6376;SDS011;3221;48.858;10.128;2023-01-15T16:22:52;3.03;;;1.60;;
6376;SDS011;3221;48.858;10.128;2023-01-15T16:25:31;3.43;;;1.60;;
6376;SDS011;3221;48.858;10.128;2023-01-15T16:28:02;2.83;;;2.00;;
6376;SDS011;3221;48.858;10.128;2023-01-15T16:30:31;1.50;;;1.30;;
6376;SDS011;3221;48.858;10.128;2023-01-15T16:33:02;4.27;;;2.27;;
6376;SDS011;3221;48.858;10.128;2023-01-15T16:35:35;4.13;;;1.80;;
6376;SDS011;3221;48.858;10.128;2023-01-15T16:38:02;3.60;;;1.67;;
6376;SDS011;3221;48.858;10.128;2023-01-15T16:40:34;3.13;;;1.20;;
6376;SDS011;3221;48.858;10.128;2023-01-15T16:51:49;1.87;;;1.30;;
6376;SDS011;3221;48.858;10.128;2023-01-15T16:53:58;2.00;;;1.40;;
6376;SDS011;3221;48.858;10.128;2023-01-15T16:59:03;1.93;;;1.60;;
6376;SDS011;3221;48.858;10.128;2023-01-15T17:01:46;5.93;;;1.77;;
6376;SDS011;3221;48.858;10.128;2023-01-15T17:09:44;3.50;;;1.93;;
6376;SDS011;3221;48.858;10.128;2023-01-15T17:12:22;2.60;;;1.53;;
6376;SDS011;3221;48.858;10.128;2023-01-15T17:14:52;3.50;;;2.00;;
6376;SDS011;3221;48.858;10.128;2023-01-15T17:19:46;4.73;;;1.70;;
6376;SDS011;3221;48.858;10.128;2023-01-15T17:24:57;3.80;;;2.07;;
6376;SDS011;3221;48.858;10.128;2023-01-15T17:27:26;6.97;;;3.27;;
6376;SDS011;3221;48.858;10.128;2023-01-15T17:29:54;3.43;;;2.60;;
6376;SDS011;3221;48.858;10.128;2023-01-15T17:34:52;4.93;;;2.83;;
6376;SDS011;3221;48.858;10.128;2023-01-15T17:37:19;7.67;;;4.03;;
6376;SDS011;3221;48.858;10.128;2023-01-15T17:39:46;6.73;;;4.20;;
6376;SDS011;3221;48.858;10.128;2023-01-15T17:42:13;6.10;;;4.10;;
6376;SDS011;3221;48.858;10.128;2023-01-15T17:44:42;3.53;;;2.73;;
6376;SDS011;3221;48.858;10.128;2023-01-15T17:47:09;3.50;;;2.63;;
6376;SDS011;3221;48.858;10.128;2023-01-15T17:49:36;2.77;;;2.30;;
6376;SDS011;3221;48.858;10.128;2023-01-15T17:52:03;4.20;;;2.00;;
6376;SDS011;3221;48.858;10.128;2023-01-15T17:54:32;3.57;;;2.30;;
6376;SDS011;3221;48.858;10.128;2023-01-15T17:57:17;5.20;;;3.03;;
6376;SDS011;3221;48.858;10.128;2023-01-15T18:00:03;3.30;;;2.37;;
6376;SDS011;3221;48.858;10.128;2023-01-15T18:02:48;3.97;;;2.80;;
6376;SDS011;3221;48.858;10.128;2023-01-15T18:05:34;4.47;;;2.90;;
6376;SDS011;3221;48.858;10.128;2023-01-15T18:08:01;4.20;;;2.90;;
6376;SDS011;3221;48.858;10.128;2023-01-15T18:10:31;6.67;;;3.47;;
6376;SDS011;3221;48.858;10.128;2023-01-15T18:12:58;6.33;;;3.10;;
6376;SDS011;3221;48.858;10.128;2023-01-15T18:15:28;5.83;;;3.20;;
6376;SDS011;3221;48.858;10.128;2023-01-15T18:17:55;4.60;;;2.40;;
6376;SDS011;3221;48.858;10.128;2023-01-15T18:20:21;5.00;;;2.70;;
6376;SDS011;3221;48.858;10.128;2023-01-15T18:22:48;5.83;;;3.53;;